createdAt,value
2023-10-11T00:00:29.309Z,5.88
2023-10-11T00:02:57.521Z,6.14
2023-10-11T00:05:25.552Z,6.11
2023-10-11T00:08:05.229Z,6.17
2023-10-11T00:10:32.268Z,6.22
2023-10-11T00:12:59.523Z,5.78
2023-10-11T00:15:30.024Z,6.08
2023-10-11T00:17:57.500Z,6.06
2023-10-11T00:20:40.068Z,5.80
2023-10-11T00:23:06.854Z,6.10
2023-10-11T00:25:33.550Z,6.12
2023-10-11T00:28:00.042Z,5.96
2023-10-11T00:30:30.775Z,6.28
2023-10-11T00:32:58.277Z,5.65
2023-10-11T00:35:26.118Z,5.90
2023-10-11T00:37:54.525Z,6.10
2023-10-11T00:40:26.960Z,5.83
2023-10-11T00:42:53.878Z,5.77
2023-10-11T00:45:23.249Z,5.65
2023-10-11T00:47:54.032Z,5.84
2023-10-11T00:50:22.536Z,5.70
2023-10-11T00:52:49.711Z,5.69
2023-10-11T00:55:21.216Z,6.00
2023-10-11T00:57:49.807Z,5.69
2023-10-11T01:00:22.470Z,6.22
2023-10-11T01:02:53.226Z,5.92
2023-10-11T01:05:20.719Z,5.99
2023-10-11T01:07:50.790Z,5.83
2023-10-11T01:10:23.847Z,5.75
2023-10-11T01:12:50.848Z,5.83
2023-10-11T01:15:23.364Z,6.14
2023-10-11T01:17:50.035Z,5.91
2023-10-11T01:20:18.309Z,6.05
2023-10-11T01:22:46.018Z,6.12
2023-10-11T01:25:14.163Z,5.71
2023-10-11T01:27:41.398Z,5.99
2023-10-11T01:30:10.447Z,5.73
2023-10-11T01:32:42.460Z,5.83
2023-10-11T01:35:20.697Z,5.62
2023-10-11T01:37:49.639Z,5.67
2023-10-11T01:40:25.338Z,5.26
2023-10-11T01:42:53.004Z,5.94
2023-10-11T01:45:24.017Z,5.53
2023-10-11T01:47:52.201Z,5.21
2023-10-11T01:50:19.464Z,5.91
2023-10-11T01:52:48.940Z,5.89
2023-10-11T01:55:16.412Z,5.70
2023-10-11T01:57:46.340Z,5.81
2023-10-11T02:00:15.056Z,5.73
2023-10-11T02:02:48.525Z,5.63
2023-10-11T02:05:16.490Z,5.65
2023-10-11T02:07:43.093Z,6.05
2023-10-11T02:10:14.638Z,5.34
2023-10-11T02:12:45.783Z,5.36
2023-10-11T02:15:24.510Z,5.59
2023-10-11T02:17:52.596Z,6.02
2023-10-11T02:20:22.955Z,5.69
2023-10-11T02:22:53.012Z,5.15
2023-10-11T02:25:21.706Z,5.30
2023-10-11T02:27:51.431Z,5.52
2023-10-11T02:30:24.116Z,5.41
2023-10-11T02:32:54.520Z,5.53
2023-10-11T02:35:21.972Z,5.43
2023-10-11T02:37:48.864Z,5.26
2023-10-11T02:40:24.178Z,5.17
2023-10-11T02:42:57.263Z,5.34
2023-10-11T02:45:24.434Z,5.30
2023-10-11T02:48:00.242Z,5.33
2023-10-11T02:50:27.281Z,5.28
2023-10-11T02:53:01.032Z,5.78
2023-10-11T02:55:28.329Z,5.45
2023-10-11T02:58:07.172Z,5.34
2023-10-11T03:00:35.364Z,5.38
2023-10-11T03:03:02.135Z,5.68
2023-10-11T03:05:29.131Z,5.44
2023-10-11T03:08:14.599Z,5.18
2023-10-11T03:10:45.306Z,5.51
2023-10-11T03:13:20.494Z,5.52
2023-10-11T03:15:55.860Z,5.49
2023-10-11T03:18:33.704Z,5.15
2023-10-11T03:21:20.610Z,5.54
2023-10-11T03:23:55.446Z,5.65
2023-10-11T03:26:32.012Z,6.01
2023-10-11T03:29:19.626Z,5.73
2023-10-11T03:31:46.869Z,5.61
2023-10-11T03:34:13.482Z,5.33
2023-10-11T03:37:00.819Z,5.04
2023-10-11T03:39:34.734Z,5.32
2023-10-11T03:42:13.361Z,5.54
2023-10-11T03:44:41.701Z,5.24
2023-10-11T03:47:09.742Z,5.54
2023-10-11T03:49:50.789Z,5.41
2023-10-11T03:52:21.017Z,5.34
2023-10-11T03:54:48.458Z,5.17
2023-10-11T03:57:18.493Z,5.71
2023-10-11T03:59:49.673Z,5.71
2023-10-11T04:02:18.731Z,5.43
2023-10-11T04:04:50.038Z,5.19
2023-10-11T04:07:18.802Z,5.42
2023-10-11T04:09:47.670Z,5.43
2023-10-11T04:12:15.459Z,5.49
2023-10-11T04:14:45.797Z,4.97
2023-10-11T04:17:27.007Z,4.93
2023-10-11T04:20:01.618Z,5.28
2023-10-11T04:22:32.281Z,5.28
2023-10-11T04:25:07.747Z,5.64
2023-10-11T04:27:35.751Z,5.37
2023-10-11T04:30:18.779Z,5.18
2023-10-11T04:32:49.187Z,4.84
2023-10-11T04:35:23.218Z,5.73
2023-10-11T04:37:55.747Z,5.65
2023-10-11T04:40:39.743Z,5.13
2023-10-11T04:43:12.958Z,5.51
2023-10-11T04:48:30.412Z,5.90
2023-10-11T04:51:07.974Z,5.50
2023-10-11T04:53:48.181Z,5.84
2023-10-11T04:56:34.757Z,5.65
2023-10-11T04:59:07.568Z,5.59
2023-10-11T05:01:55.552Z,5.81
2023-10-11T05:04:42.062Z,5.97
2023-10-11T05:07:09.637Z,5.37
2023-10-11T05:09:39.819Z,5.36
2023-10-11T05:12:13.831Z,5.25
2023-10-11T05:14:57.917Z,5.65
2023-10-11T05:17:25.200Z,5.73
2023-10-11T05:20:12.118Z,5.91
2023-10-11T05:22:41.930Z,5.49
2023-10-11T05:25:31.473Z,5.92
2023-10-11T05:27:58.695Z,5.94
2023-10-11T05:30:26.564Z,5.59
2023-10-11T05:32:54.940Z,5.94
2023-10-11T05:35:25.614Z,5.68
2023-10-11T05:38:15.691Z,6.13
2023-10-11T05:41:02.211Z,6.33
2023-10-11T05:43:48.684Z,6.28
2023-10-11T05:46:35.169Z,6.24
2023-10-11T05:49:21.731Z,5.68
2023-10-11T05:51:49.468Z,5.79
2023-10-11T05:54:17.593Z,6.67
2023-10-11T05:56:48.619Z,6.62
2023-10-11T05:59:15.701Z,7.21
2023-10-11T06:01:46.182Z,6.17
2023-10-11T06:04:15.302Z,5.98
2023-10-11T06:06:43.696Z,5.46
2023-10-11T06:09:18.167Z,5.70
2023-10-11T06:11:50.077Z,5.92
2023-10-11T06:14:19.784Z,5.68
2023-10-11T06:16:51.136Z,5.37
2023-10-11T06:19:18.667Z,5.97
2023-10-11T06:21:59.200Z,5.73
2023-10-11T06:24:45.360Z,5.75
2023-10-11T06:27:11.997Z,5.75
2023-10-11T06:29:46.277Z,5.73
2023-10-11T06:32:19.804Z,6.03
2023-10-11T06:34:48.619Z,5.54
2023-10-11T06:37:19.189Z,4.88
2023-10-11T06:39:47.919Z,4.30
2023-10-11T06:42:22.262Z,4.79
2023-10-11T06:44:52.798Z,5.50
2023-10-11T06:47:22.281Z,4.78
2023-10-11T06:49:56.344Z,4.64
2023-10-11T06:52:26.616Z,4.66
2023-10-11T06:55:15.470Z,4.86
2023-10-11T06:57:51.537Z,6.29
2023-10-11T07:00:23.851Z,6.01
2023-10-11T07:02:53.939Z,5.38
2023-10-11T07:05:22.425Z,4.47
2023-10-11T07:07:49.155Z,4.96
2023-10-11T07:10:29.713Z,5.65
2023-10-11T07:13:06.705Z,5.06
2023-10-11T07:15:53.590Z,5.12
2023-10-11T07:18:29.413Z,4.97
2023-10-11T07:21:08.420Z,5.20
2023-10-11T07:23:54.304Z,4.60
2023-10-11T07:26:24.403Z,4.70
2023-10-11T07:28:53.313Z,4.84
2023-10-11T07:31:22.362Z,4.44
2023-10-11T07:33:56.561Z,4.78
2023-10-11T07:36:24.644Z,4.53
2023-10-11T07:38:57.185Z,4.44
2023-10-11T07:41:29.561Z,4.55
2023-10-11T07:43:57.751Z,4.57
2023-10-11T07:46:25.777Z,5.00
2023-10-11T07:49:00.959Z,5.02
2023-10-11T07:51:27.562Z,4.90
2023-10-11T07:53:55.444Z,5.00
2023-10-11T07:56:22.074Z,4.62
2023-10-11T07:58:49.465Z,4.56
2023-10-11T08:01:17.753Z,4.61
2023-10-11T08:03:47.646Z,5.12
2023-10-11T08:06:15.834Z,4.93
2023-10-11T08:08:44.356Z,4.93
2023-10-11T08:11:29.009Z,4.52
2023-10-11T08:14:02.183Z,4.60
2023-10-11T08:16:29.716Z,4.78
2023-10-11T08:18:56.250Z,4.67
2023-10-11T08:21:23.327Z,4.76
2023-10-11T08:23:51.610Z,4.40
2023-10-11T08:26:20.867Z,4.70
2023-10-11T08:28:49.284Z,4.40
2023-10-11T08:31:27.712Z,4.48
2023-10-11T08:33:54.779Z,4.69
2023-10-11T08:36:22.631Z,4.60
2023-10-11T08:38:49.309Z,4.72
2023-10-11T08:41:16.921Z,4.25
2023-10-11T08:43:44.668Z,4.51
2023-10-11T08:46:13.807Z,4.51
2023-10-11T08:48:40.598Z,4.70
2023-10-11T08:51:14.734Z,4.28
2023-10-11T08:53:48.165Z,4.51
2023-10-11T08:56:16.440Z,4.54
2023-10-11T08:58:43.297Z,4.69
2023-10-11T09:01:09.878Z,4.54
2023-10-11T09:03:43.866Z,4.50
2023-10-11T09:06:23.458Z,4.69
2023-10-11T09:08:52.487Z,4.67
2023-10-11T09:11:35.056Z,4.92
2023-10-11T09:14:28.149Z,5.00
2023-10-11T09:17:03.803Z,4.96
2023-10-11T09:19:33.997Z,4.93
2023-10-11T09:22:19.318Z,4.76
2023-10-11T09:24:46.877Z,4.69
2023-10-11T09:27:17.617Z,4.54
2023-10-11T09:29:48.261Z,4.58
2023-10-11T09:32:20.948Z,4.73
2023-10-11T09:34:48.630Z,4.66
2023-10-11T09:37:15.376Z,4.85
2023-10-11T09:39:44.550Z,4.80
2023-10-11T09:42:15.557Z,4.55
2023-10-11T09:44:46.909Z,4.79
2023-10-11T09:47:18.761Z,4.60
2023-10-11T09:49:48.580Z,4.25
2023-10-11T09:52:18.010Z,4.60
2023-10-11T09:54:47.832Z,4.78
2023-10-11T09:57:54.338Z,4.67
2023-10-11T10:00:45.004Z,4.52
2023-10-11T10:03:14.746Z,4.67
2023-10-11T10:06:21.899Z,4.37
2023-10-11T10:09:19.629Z,4.45
2023-10-11T10:12:22.928Z,4.20
2023-10-11T10:15:05.551Z,4.31
2023-10-11T10:17:32.223Z,4.29
2023-10-11T10:20:45.335Z,4.40
2023-10-11T10:23:15.270Z,4.35
2023-10-11T10:25:48.144Z,4.79
2023-10-11T10:28:38.278Z,4.37
2023-10-11T10:31:10.840Z,4.02
2023-10-11T10:33:38.597Z,4.23
2023-10-11T10:36:21.893Z,3.89
2023-10-11T10:39:24.081Z,4.28
2023-10-11T10:42:13.543Z,4.29
2023-10-11T10:44:57.159Z,4.13
2023-10-11T10:47:30.031Z,4.48
2023-10-11T10:49:58.100Z,4.06
2023-10-11T10:52:31.483Z,3.88
2023-10-11T10:55:03.251Z,4.07
2023-10-11T10:57:34.875Z,4.07
2023-10-11T11:00:21.767Z,4.39
2023-10-11T11:02:51.014Z,4.05
2023-10-11T11:05:26.604Z,3.95
2023-10-11T11:07:59.356Z,3.78
2023-10-11T11:10:31.846Z,3.81
2023-10-11T11:12:58.514Z,3.86
2023-10-11T11:15:38.182Z,3.83
2023-10-11T11:18:05.255Z,3.92
2023-10-11T11:20:33.698Z,4.12
2023-10-11T11:23:00.853Z,4.03
2023-10-11T11:25:27.467Z,3.64
2023-10-11T11:28:16.883Z,3.87
2023-10-11T11:31:22.052Z,3.51
2023-10-11T11:34:05.976Z,3.69
2023-10-11T11:36:35.930Z,3.85
2023-10-11T11:39:23.394Z,3.61
2023-10-11T11:41:56.214Z,3.82
2023-10-11T11:44:25.883Z,3.80
2023-10-11T11:46:58.241Z,3.75
2023-10-11T11:49:27.945Z,3.68
2023-10-11T11:51:56.721Z,3.59
2023-10-11T11:54:29.712Z,3.66
2023-10-11T11:56:58.554Z,3.83
2023-10-11T11:59:30.456Z,3.86
2023-10-11T12:02:00.772Z,4.13
2023-10-11T12:04:30.737Z,4.08
2023-10-11T12:07:03.818Z,4.43
2023-10-11T12:09:44.710Z,4.17
2023-10-11T12:12:18.572Z,4.39
2023-10-11T12:14:45.338Z,4.08
2023-10-11T12:17:11.839Z,3.85
2023-10-11T12:19:39.916Z,3.82
2023-10-11T12:22:06.939Z,4.15
2023-10-11T12:24:33.689Z,3.88
2023-10-11T12:27:00.721Z,4.10
2023-10-11T12:29:27.828Z,4.13
2023-10-11T12:31:55.535Z,4.06
2023-10-11T12:34:25.995Z,3.99
2023-10-11T12:36:54.576Z,3.84
2023-10-11T12:39:22.277Z,4.04
2023-10-11T12:41:51.662Z,4.19
2023-10-11T12:44:20.014Z,4.08
2023-10-11T12:46:50.644Z,4.15
2023-10-11T12:49:19.734Z,3.98
2023-10-11T12:51:47.983Z,4.04
2023-10-11T12:54:16.201Z,4.28
2023-10-11T12:56:43.955Z,4.01
2023-10-11T12:59:13.948Z,4.11
2023-10-11T13:01:50.942Z,3.87
2023-10-11T13:04:20.003Z,4.09
2023-10-11T13:06:50.841Z,4.18
2023-10-11T13:09:28.889Z,3.99
2023-10-11T13:11:58.151Z,3.91
2023-10-11T13:14:26.309Z,4.00
2023-10-11T13:16:59.538Z,4.17
2023-10-11T13:19:27.397Z,3.70
2023-10-11T13:21:56.538Z,3.92
2023-10-11T13:24:27.296Z,3.97
2023-10-11T13:26:58.496Z,3.80
2023-10-11T13:29:28.510Z,4.02
2023-10-11T13:31:59.262Z,3.74
2023-10-11T13:34:30.141Z,3.87
2023-10-11T13:36:58.973Z,4.04
2023-10-11T13:39:27.458Z,3.85
2023-10-11T13:42:05.280Z,4.00
2023-10-11T13:44:34.174Z,3.70
2023-10-11T13:47:02.288Z,4.29
2023-10-11T13:49:31.867Z,4.38
2023-10-11T13:52:04.011Z,3.88
2023-10-11T13:54:35.433Z,3.99
2023-10-11T13:57:08.659Z,3.96
2023-10-11T13:59:46.671Z,3.82
2023-10-11T14:02:35.629Z,3.99
2023-10-11T14:05:08.405Z,3.81
2023-10-11T14:07:38.078Z,4.44
2023-10-11T14:10:16.677Z,3.93
2023-10-11T14:12:44.800Z,3.67
2023-10-11T14:15:18.662Z,3.86
2023-10-11T14:17:48.496Z,4.23
2023-10-11T14:20:28.168Z,3.92
2023-10-11T14:22:55.183Z,4.25
2023-10-11T14:25:21.814Z,3.83
2023-10-11T14:27:48.884Z,4.05
2023-10-11T14:30:16.485Z,4.00
2023-10-11T14:32:46.450Z,3.84
2023-10-11T14:35:16.427Z,4.06
2023-10-11T14:37:44.107Z,3.96
2023-10-11T14:40:17.573Z,3.91
2023-10-11T14:42:47.816Z,4.02
2023-10-11T14:45:19.119Z,4.10
2023-10-11T14:47:48.953Z,4.53
2023-10-11T14:50:18.426Z,4.47
2023-10-11T14:52:46.903Z,4.17
2023-10-11T14:55:17.436Z,5.09
2023-10-11T14:57:52.158Z,4.60
2023-10-11T15:00:23.748Z,4.22
2023-10-11T15:02:52.554Z,4.26
2023-10-11T15:05:20.571Z,4.13
2023-10-11T15:07:52.884Z,4.37
2023-10-11T15:10:25.220Z,4.26
2023-10-11T15:12:55.977Z,4.41
2023-10-11T15:15:28.310Z,4.68
2023-10-11T15:17:57.246Z,4.19
2023-10-11T15:20:24.258Z,4.47
2023-10-11T15:22:53.103Z,4.52
2023-10-11T15:25:19.764Z,4.54
2023-10-11T15:27:46.440Z,4.95
2023-10-11T15:30:14.377Z,4.65
2023-10-11T15:32:41.426Z,4.69
2023-10-11T15:35:08.821Z,4.62
2023-10-11T15:37:35.340Z,4.50
2023-10-11T15:40:02.398Z,4.69
2023-10-11T15:42:29.371Z,4.64
2023-10-11T15:44:56.093Z,4.70
2023-10-11T15:47:23.506Z,4.74
2023-10-11T15:49:59.648Z,4.81
2023-10-11T15:52:26.358Z,4.92
2023-10-11T15:54:54.416Z,4.84
2023-10-11T15:57:21.112Z,4.77
2023-10-11T15:59:48.372Z,5.12
2023-10-11T16:02:15.502Z,5.42
2023-10-11T16:04:42.568Z,5.05
2023-10-11T16:07:09.228Z,4.91
2023-10-11T16:09:36.534Z,4.89
2023-10-11T16:12:04.052Z,4.93
2023-10-11T16:14:32.416Z,5.01
2023-10-11T16:16:59.092Z,5.05
2023-10-11T16:19:29.153Z,5.05
2023-10-11T16:21:57.228Z,5.20
2023-10-11T16:24:24.518Z,5.13
2023-10-11T16:26:54.733Z,5.08
2023-10-11T16:29:23.380Z,4.66
2023-10-11T16:31:50.604Z,4.88
2023-10-11T16:34:18.296Z,5.26
2023-10-11T16:36:46.149Z,4.77
2023-10-11T16:39:24.850Z,5.10
2023-10-11T16:41:59.429Z,5.16
2023-10-11T16:44:25.888Z,5.41
2023-10-11T16:46:54.947Z,5.00
2023-10-11T16:49:21.573Z,5.28
2023-10-11T16:51:48.294Z,5.31
2023-10-11T16:54:17.562Z,5.36
2023-10-11T16:56:45.371Z,5.18
2023-10-11T16:59:12.125Z,5.49
2023-10-11T17:01:38.693Z,5.74
2023-10-11T17:04:08.742Z,5.72
2023-10-11T17:06:35.788Z,5.46
2023-10-11T17:09:02.729Z,5.29
2023-10-11T17:11:31.007Z,5.72
2023-10-11T17:13:58.422Z,5.94
2023-10-11T17:16:27.746Z,5.48
2023-10-11T17:18:54.922Z,5.55
2023-10-11T17:21:21.684Z,5.37
2023-10-11T17:23:48.281Z,5.80
2023-10-11T17:26:16.189Z,5.75
2023-10-11T17:28:45.712Z,5.65
2023-10-11T17:31:14.508Z,5.27
2023-10-11T17:33:46.969Z,5.22
2023-10-11T17:36:14.000Z,5.44
2023-10-11T17:38:40.851Z,5.45
2023-10-11T17:41:10.177Z,5.26
2023-10-11T17:43:38.614Z,5.50
2023-10-11T17:46:07.822Z,5.26
2023-10-11T17:48:37.029Z,5.23
2023-10-11T17:51:07.973Z,5.53
2023-10-11T17:53:37.534Z,5.53
2023-10-11T17:56:05.517Z,5.54
2023-10-11T17:58:34.500Z,5.51
2023-10-11T18:01:01.822Z,5.11
2023-10-11T18:03:29.064Z,5.71
2023-10-11T18:05:56.867Z,5.46
2023-10-11T18:08:24.125Z,5.25
2023-10-11T18:10:50.725Z,5.18
2023-10-11T18:13:17.551Z,5.31
2023-10-11T18:15:44.467Z,5.26
2023-10-11T18:18:11.798Z,5.09
2023-10-11T18:20:39.287Z,5.19
2023-10-11T18:23:09.201Z,5.29
2023-10-11T18:25:37.177Z,5.09
2023-10-11T18:28:06.360Z,5.06
2023-10-11T18:30:35.488Z,5.21
2023-10-11T18:33:04.298Z,5.55
2023-10-11T18:35:32.430Z,5.37
2023-10-11T18:37:59.913Z,5.46
2023-10-11T18:40:27.610Z,5.32
2023-10-11T18:42:55.286Z,5.24
2023-10-11T18:45:23.838Z,5.47
2023-10-11T18:47:54.481Z,5.35
2023-10-11T18:50:25.104Z,5.06
2023-10-11T18:52:54.347Z,5.26
2023-10-11T18:55:23.112Z,5.02
2023-10-11T18:57:52.860Z,5.19
2023-10-11T19:00:24.043Z,5.09
2023-10-11T19:02:53.605Z,5.07
2023-10-11T19:05:23.070Z,4.82
2023-10-11T19:07:54.430Z,4.91
2023-10-11T19:10:21.654Z,5.06
2023-10-11T19:12:49.516Z,4.77
2023-10-11T19:15:18.534Z,4.87
2023-10-11T19:17:52.050Z,5.40
2023-10-11T19:20:24.676Z,4.79
2023-10-11T19:22:53.935Z,5.15
2023-10-11T19:25:21.908Z,5.01
2023-10-11T19:27:51.004Z,5.29
2023-10-11T19:30:22.117Z,5.16
2023-10-11T19:32:51.016Z,5.07
2023-10-11T19:35:20.287Z,5.32
2023-10-11T19:37:46.896Z,5.02
2023-10-11T19:40:19.829Z,5.13
2023-10-11T19:42:47.108Z,5.48
2023-10-11T19:45:19.021Z,5.64
2023-10-11T19:47:48.352Z,5.56
2023-10-11T19:50:16.665Z,5.34
2023-10-11T19:52:46.797Z,5.42
2023-10-11T19:55:14.529Z,4.85
2023-10-11T19:57:42.939Z,5.03
2023-10-11T20:00:11.748Z,5.03
2023-10-11T20:02:38.622Z,4.96
2023-10-11T20:05:08.313Z,4.73
2023-10-11T20:07:35.849Z,5.30
2023-10-11T20:10:02.333Z,5.09
2023-10-11T20:12:29.059Z,5.48
2023-10-11T20:14:55.610Z,5.35
2023-10-11T20:17:22.152Z,5.25
2023-10-11T20:19:48.910Z,5.16
2023-10-11T20:22:15.391Z,5.21
2023-10-11T20:24:41.956Z,5.17
2023-10-11T20:27:08.608Z,5.09
2023-10-11T20:29:37.771Z,5.23
2023-10-11T20:32:04.896Z,5.33
2023-10-11T20:34:32.385Z,4.94
2023-10-11T20:37:00.781Z,5.24
2023-10-11T20:39:30.796Z,5.41
2023-10-11T20:41:58.238Z,5.16
2023-10-11T20:44:26.428Z,5.13
2023-10-11T20:46:53.779Z,5.47
2023-10-11T20:49:20.767Z,5.54
2023-10-11T20:51:50.266Z,5.17
2023-10-11T20:54:19.946Z,5.46
2023-10-11T20:56:47.267Z,5.42
2023-10-11T20:59:15.410Z,5.11
2023-10-11T21:01:45.499Z,5.24
2023-10-11T21:04:13.796Z,5.16
2023-10-11T21:06:40.651Z,5.20
2023-10-11T21:09:07.288Z,5.50
2023-10-11T21:11:34.192Z,5.12
2023-10-11T21:14:02.230Z,5.35
2023-10-11T21:16:29.264Z,5.06
2023-10-11T21:18:57.631Z,5.06
2023-10-11T21:21:26.189Z,5.41
2023-10-11T21:23:55.146Z,5.02
2023-10-11T21:26:22.549Z,5.61
2023-10-11T21:28:54.292Z,5.36
2023-10-11T21:31:21.622Z,5.42
2023-10-11T21:33:48.548Z,5.28
2023-10-11T21:36:17.395Z,5.19
2023-10-11T21:38:47.978Z,5.35
2023-10-11T21:41:14.525Z,5.20
2023-10-11T21:43:41.587Z,5.63
2023-10-11T21:46:13.590Z,5.46
2023-10-11T21:48:41.329Z,5.30
2023-10-11T21:51:14.422Z,5.38
2023-10-11T21:53:42.670Z,5.37
2023-10-11T21:56:10.444Z,5.35
2023-10-11T21:58:39.199Z,5.21
2023-10-11T22:01:08.215Z,5.41
2023-10-11T22:03:35.075Z,5.65
2023-10-11T22:06:06.174Z,5.18
2023-10-11T22:08:34.658Z,5.62
2023-10-11T22:11:01.630Z,5.33
2023-10-11T22:13:33.143Z,5.31
2023-10-11T22:16:00.026Z,5.55
2023-10-11T22:18:30.537Z,5.49
2023-10-11T22:20:59.664Z,5.56
2023-10-11T22:23:26.583Z,5.14
2023-10-11T22:25:53.644Z,5.49
2023-10-11T22:28:20.208Z,5.50
2023-10-11T22:30:48.202Z,5.37
2023-10-11T22:33:15.503Z,5.59
2023-10-11T22:35:43.707Z,5.90
2023-10-11T22:38:10.807Z,5.53
2023-10-11T22:40:39.984Z,5.21
2023-10-11T22:43:17.519Z,5.30
2023-10-11T22:45:52.817Z,5.71
2023-10-11T22:48:20.731Z,5.66
2023-10-11T22:50:47.766Z,5.38
2023-10-11T22:53:14.701Z,5.49
2023-10-11T22:55:42.317Z,5.32
2023-10-11T22:58:09.160Z,5.10
2023-10-11T23:00:36.380Z,5.50
2023-10-11T23:03:03.738Z,5.54
2023-10-11T23:05:31.555Z,5.75
2023-10-11T23:07:59.134Z,5.63
2023-10-11T23:10:27.351Z,5.79
2023-10-11T23:12:57.916Z,5.62
2023-10-11T23:15:29.700Z,5.42
2023-10-11T23:17:58.977Z,5.73
2023-10-11T23:20:37.756Z,5.41
2023-10-11T23:23:13.499Z,6.19
2023-10-11T23:25:50.562Z,5.84
2023-10-11T23:28:23.013Z,5.65
2023-10-11T23:30:56.602Z,5.24
2023-10-11T23:33:26.062Z,5.53
2023-10-11T23:35:53.000Z,5.73
2023-10-11T23:38:27.808Z,5.71
2023-10-11T23:40:56.618Z,5.86
2023-10-11T23:43:30.015Z,5.37
2023-10-11T23:45:58.099Z,5.55
2023-10-11T23:48:34.257Z,5.79
2023-10-11T23:51:06.654Z,5.65
2023-10-11T23:53:44.300Z,6.02
2023-10-11T23:56:18.917Z,5.88
2023-10-11T23:58:57.704Z,5.39
